createdAt,value
2022-08-14T00:02:01.448Z,43.66
2022-08-14T00:04:35.436Z,43.67
2022-08-14T00:07:11.154Z,43.93
2022-08-14T00:09:39.839Z,43.90
2022-08-14T00:12:23.619Z,43.97
2022-08-14T00:14:54.816Z,44.18
2022-08-14T00:17:23.258Z,44.27
2022-08-14T00:19:52.453Z,44.59
2022-08-14T00:22:44.658Z,44.53
2022-08-14T00:25:10.190Z,44.62
2022-08-14T00:27:38.519Z,44.55
2022-08-14T00:30:10.764Z,44.86
2022-08-14T00:32:52.079Z,44.78
2022-08-14T00:36:37.002Z,44.98
2022-08-14T00:38:13.749Z,45.35
2022-08-14T00:40:46.185Z,45.27
2022-08-14T00:43:15.302Z,45.64
2022-08-14T00:45:43.690Z,45.47
2022-08-14T00:48:34.478Z,45.90
2022-08-14T00:51:07.597Z,45.90
2022-08-14T00:53:36.518Z,46.07
2022-08-14T00:56:07.150Z,45.90
2022-08-14T00:58:44.897Z,45.90
2022-08-14T01:01:14.608Z,46.56
2022-08-14T01:03:45.315Z,46.38
2022-08-14T01:06:18.398Z,46.22
2022-08-14T01:08:51.495Z,46.61
2022-08-14T01:11:35.681Z,46.24
2022-08-14T01:14:25.823Z,46.31
2022-08-14T01:16:55.414Z,46.35
2022-08-14T01:19:41.582Z,46.50
2022-08-14T01:22:12.268Z,46.59
2022-08-14T01:24:43.595Z,46.73
2022-08-14T01:27:16.035Z,46.71
2022-08-14T01:30:03.091Z,47.19
2022-08-14T01:32:37.357Z,47.33
2022-08-14T01:35:17.851Z,47.25
2022-08-14T01:37:59.821Z,47.46
2022-08-14T01:40:33.007Z,47.71
2022-08-14T01:43:04.973Z,47.98
2022-08-14T01:45:40.859Z,48.11
2022-08-14T01:48:13.852Z,48.16
2022-08-14T01:50:44.201Z,48.23
2022-08-14T01:53:14.601Z,48.36
2022-08-14T01:55:42.430Z,48.22
2022-08-14T01:58:19.801Z,48.51
2022-08-14T02:00:54.953Z,48.42
2022-08-14T02:03:28.364Z,48.61
2022-08-14T02:05:59.869Z,48.46
2022-08-14T02:08:34.621Z,48.53
2022-08-14T02:11:22.391Z,48.54
2022-08-14T02:13:53.210Z,48.68
2022-08-14T02:16:26.408Z,48.64
2022-08-14T02:18:55.826Z,48.94
2022-08-14T02:21:23.765Z,49.28
2022-08-14T02:23:54.750Z,49.60
2022-08-14T02:26:29.565Z,49.80
2022-08-14T02:29:03.572Z,49.60
2022-08-14T02:31:42.042Z,49.63
2022-08-14T02:34:19.936Z,49.85
2022-08-14T02:37:04.285Z,49.83
2022-08-14T02:39:38.011Z,50.12
2022-08-14T02:42:13.208Z,50.36
2022-08-14T02:44:49.215Z,50.58
2022-08-14T02:47:20.627Z,50.61
2022-08-14T02:49:54.836Z,51.14
2022-08-14T02:52:56.857Z,51.10
2022-08-14T02:55:19.894Z,51.05
2022-08-14T02:57:57.885Z,51.10
2022-08-14T03:00:27.294Z,51.41
2022-08-14T03:02:58.462Z,51.48
2022-08-14T03:05:32.914Z,51.71
2022-08-14T03:08:08.825Z,51.50
2022-08-14T03:10:41.907Z,51.59
2022-08-14T03:13:20.874Z,52.16
2022-08-14T03:15:55.888Z,52.35
2022-08-14T03:18:31.112Z,52.26
2022-08-14T03:21:02.868Z,52.72
2022-08-14T03:23:34.076Z,52.43
2022-08-14T03:26:07.110Z,52.63
2022-08-14T03:28:36.681Z,52.76
2022-08-14T03:31:08.424Z,52.95
2022-08-14T03:33:41.796Z,53.15
2022-08-14T03:37:38.575Z,53.11
2022-08-14T03:39:13.606Z,53.43
2022-08-14T03:41:47.775Z,53.54
2022-08-14T03:45:26.684Z,53.66
2022-08-14T03:47:03.463Z,53.71
2022-08-14T03:49:31.294Z,53.93
2022-08-14T03:52:18.053Z,53.96
2022-08-14T03:54:53.139Z,54.37
2022-08-14T03:57:22.769Z,54.51
2022-08-14T03:59:51.656Z,54.50
2022-08-14T04:02:33.408Z,54.68
2022-08-14T04:05:11.563Z,54.81
2022-08-14T04:07:49.473Z,54.95
2022-08-14T04:10:31.630Z,55.27
2022-08-14T04:13:03.770Z,55.35
2022-08-14T04:15:40.942Z,55.33
2022-08-14T04:18:21.155Z,55.56
2022-08-14T04:20:54.288Z,55.72
2022-08-14T04:23:30.010Z,55.89
2022-08-14T04:26:04.777Z,56.05
2022-08-14T04:29:07.151Z,56.17
2022-08-14T04:33:02.075Z,56.50
2022-08-14T04:34:17.058Z,56.32
2022-08-14T04:37:07.353Z,56.33
2022-08-14T04:39:57.210Z,56.65
2022-08-14T04:42:47.533Z,56.62
2022-08-14T04:45:23.243Z,56.71
2022-08-14T04:48:10.169Z,56.88
2022-08-14T04:50:44.712Z,56.63
2022-08-14T04:53:16.272Z,56.91
2022-08-14T04:55:50.030Z,57.00
2022-08-14T04:58:32.961Z,56.95
2022-08-14T05:01:06.199Z,57.03
2022-08-14T05:03:41.028Z,57.10
2022-08-14T05:06:35.058Z,57.08
2022-08-14T05:09:00.384Z,57.04
2022-08-14T05:11:33.332Z,56.84
2022-08-14T05:14:33.993Z,57.04
2022-08-14T05:16:59.265Z,56.90
2022-08-14T05:19:30.000Z,56.76
2022-08-14T05:22:16.855Z,56.93
2022-08-14T05:24:50.333Z,56.86
2022-08-14T05:27:22.604Z,56.70
2022-08-14T05:29:53.768Z,56.52
2022-08-14T05:32:27.167Z,56.45
2022-08-14T05:34:58.112Z,56.58
2022-08-14T05:37:26.631Z,56.28
2022-08-14T05:39:54.896Z,56.26
2022-08-14T05:42:29.482Z,56.30
2022-08-14T05:45:01.981Z,56.41
2022-08-14T05:47:39.250Z,56.30
2022-08-14T05:50:19.281Z,56.20
2022-08-14T05:52:49.304Z,56.16
2022-08-14T05:55:22.640Z,56.04
2022-08-14T05:57:54.729Z,55.99
2022-08-14T06:00:34.799Z,55.81
2022-08-14T06:03:09.758Z,55.26
2022-08-14T06:05:38.827Z,55.47
2022-08-14T06:08:08.651Z,55.44
2022-08-14T06:10:50.498Z,55.18
2022-08-14T06:13:18.533Z,54.95
2022-08-14T06:15:47.492Z,55.27
2022-08-14T06:18:17.511Z,54.90
2022-08-14T06:20:45.957Z,54.94
2022-08-14T06:23:14.552Z,54.27
2022-08-14T06:25:44.683Z,54.15
2022-08-14T06:28:27.868Z,54.09
2022-08-14T06:30:56.773Z,53.56
2022-08-14T06:33:45.791Z,53.47
2022-08-14T06:36:14.695Z,53.39
2022-08-14T06:38:46.334Z,52.90
2022-08-14T06:41:20.739Z,53.02
2022-08-14T06:43:49.207Z,53.20
2022-08-14T06:46:26.551Z,52.81
2022-08-14T06:49:03.740Z,52.70
2022-08-14T06:51:44.707Z,52.84
2022-08-14T06:54:13.318Z,53.10
2022-08-14T06:56:44.432Z,52.33
2022-08-14T06:59:22.417Z,51.93
2022-08-14T07:02:13.735Z,51.83
2022-08-14T07:05:05.613Z,51.76
2022-08-14T07:07:39.221Z,51.52
2022-08-14T07:10:07.931Z,51.67
2022-08-14T07:12:54.926Z,51.32
2022-08-14T07:15:30.209Z,50.80
2022-08-14T07:18:01.276Z,50.31
2022-08-14T07:20:32.061Z,50.96
2022-08-14T07:23:07.462Z,50.81
2022-08-14T07:25:37.789Z,50.32
2022-08-14T07:28:12.974Z,50.28
2022-08-14T07:30:50.744Z,50.51
2022-08-14T07:33:24.914Z,50.54
2022-08-14T07:36:01.471Z,50.31
2022-08-14T07:38:33.942Z,49.94
2022-08-14T07:41:11.608Z,49.35
2022-08-14T07:43:43.028Z,49.66
2022-08-14T07:46:12.276Z,49.32
2022-08-14T07:48:41.529Z,49.17
2022-08-14T07:51:11.627Z,48.97
2022-08-14T07:53:40.495Z,48.92
2022-08-14T07:56:43.890Z,48.61
2022-08-14T07:58:58.766Z,48.29
2022-08-14T08:01:29.989Z,48.25
2022-08-14T08:04:00.334Z,47.87
2022-08-14T08:06:31.001Z,47.87
2022-08-14T08:09:02.861Z,47.35
2022-08-14T08:11:37.178Z,47.43
2022-08-14T08:14:10.855Z,47.38
2022-08-14T08:16:47.329Z,47.29
2022-08-14T08:19:19.223Z,46.88
2022-08-14T08:21:48.656Z,46.89
2022-08-14T08:24:19.688Z,46.65
2022-08-14T08:26:50.449Z,47.22
2022-08-14T08:29:24.966Z,47.25
2022-08-14T08:31:56.549Z,47.40
2022-08-14T08:34:30.457Z,46.82
2022-08-14T08:37:05.133Z,45.92
2022-08-14T08:40:02.376Z,45.92
2022-08-14T08:42:41.439Z,46.18
2022-08-14T08:45:17.480Z,45.85
2022-08-14T08:47:46.528Z,45.41
2022-08-14T08:50:31.716Z,45.46
2022-08-14T08:53:02.140Z,45.59
2022-08-14T08:55:34.167Z,45.49
2022-08-14T08:58:04.387Z,45.18
2022-08-14T09:00:36.165Z,45.38
2022-08-14T09:03:10.206Z,44.93
2022-08-14T09:05:57.985Z,44.94
2022-08-14T09:08:43.648Z,44.64
2022-08-14T09:11:19.486Z,44.56
2022-08-14T09:13:50.855Z,44.22
2022-08-14T09:16:21.805Z,43.77
2022-08-14T09:18:53.487Z,43.75
2022-08-14T09:21:24.128Z,43.52
2022-08-14T09:24:28.616Z,43.77
2022-08-14T09:26:44.233Z,43.78
2022-08-14T09:29:17.418Z,43.77
2022-08-14T09:31:53.182Z,43.22
2022-08-14T09:34:31.160Z,43.31
2022-08-14T09:37:35.781Z,42.79
2022-08-14T09:40:16.782Z,42.90
2022-08-14T09:43:01.546Z,41.90
2022-08-14T09:45:39.944Z,41.22
2022-08-14T09:48:27.535Z,41.59
2022-08-14T09:54:18.578Z,40.51
2022-08-14T09:56:31.024Z,40.25
2022-08-14T09:59:00.305Z,40.72
2022-08-14T10:01:40.181Z,40.22
2022-08-14T10:04:33.909Z,40.11
2022-08-14T10:07:04.478Z,39.90
2022-08-14T10:09:33.181Z,39.76
2022-08-14T10:12:18.623Z,39.66
2022-08-14T10:14:54.721Z,39.72
2022-08-14T10:17:27.514Z,38.95
2022-08-14T10:20:00.826Z,39.04
2022-08-14T10:23:15.168Z,39.06
2022-08-14T10:25:19.835Z,39.31
2022-08-14T10:28:00.059Z,38.48
2022-08-14T10:30:37.574Z,38.48
2022-08-14T10:33:07.066Z,37.94
2022-08-14T10:35:47.919Z,38.20
2022-08-14T10:38:26.779Z,38.46
2022-08-14T10:40:59.137Z,38.53
2022-08-14T10:43:31.906Z,36.96
2022-08-14T10:46:22.118Z,37.36
2022-08-14T10:48:58.351Z,37.55
2022-08-14T10:51:27.334Z,38.06
2022-08-14T10:54:01.886Z,38.12
2022-08-14T10:56:45.488Z,37.60
2022-08-14T10:59:15.367Z,37.38
2022-08-14T11:01:43.195Z,37.03
2022-08-14T11:04:25.879Z,36.90
2022-08-14T11:06:56.878Z,36.80
2022-08-14T11:09:26.447Z,36.94
2022-08-14T11:12:33.793Z,36.29
2022-08-14T11:14:59.321Z,36.17
2022-08-14T11:17:32.119Z,36.23
2022-08-14T11:20:01.761Z,36.09
2022-08-14T11:22:52.352Z,36.94
2022-08-14T11:25:21.396Z,35.64
2022-08-14T11:27:49.465Z,36.35
2022-08-14T11:30:49.922Z,36.32
2022-08-14T11:33:09.450Z,35.86
2022-08-14T11:35:47.374Z,34.73
2022-08-14T11:38:17.965Z,35.17
2022-08-14T11:40:47.053Z,35.06
2022-08-14T11:43:16.391Z,35.52
2022-08-14T11:45:48.781Z,35.01
2022-08-14T11:49:02.469Z,35.13
2022-08-14T11:51:13.845Z,34.50
2022-08-14T11:53:43.613Z,33.06
2022-08-14T11:56:13.912Z,33.86
2022-08-14T11:58:42.333Z,33.57
2022-08-14T12:01:11.621Z,33.96
2022-08-14T12:03:46.771Z,33.74
2022-08-14T12:06:29.310Z,33.05
2022-08-14T12:09:08.590Z,33.92
2022-08-14T12:11:47.424Z,33.54
2022-08-14T12:14:29.811Z,34.02
2022-08-14T12:17:02.451Z,34.24
2022-08-14T12:19:33.491Z,34.22
2022-08-14T12:22:01.593Z,34.15
2022-08-14T12:24:32.078Z,33.77
2022-08-14T12:27:05.108Z,34.03
2022-08-14T12:29:35.032Z,33.85
2022-08-14T12:32:09.026Z,33.71
2022-08-14T12:34:45.046Z,33.72
2022-08-14T12:37:13.059Z,33.25
2022-08-14T12:39:41.040Z,34.00
2022-08-14T12:42:11.925Z,33.09
2022-08-14T12:44:58.678Z,33.31
2022-08-14T12:47:31.301Z,32.67
2022-08-14T12:49:59.562Z,32.67
2022-08-14T12:52:41.755Z,33.27
2022-08-14T12:55:20.929Z,33.47
2022-08-14T12:57:53.284Z,33.63
2022-08-14T13:00:24.451Z,33.13
2022-08-14T13:02:56.531Z,33.72
2022-08-14T13:05:27.485Z,33.46
2022-08-14T13:07:57.226Z,33.49
2022-08-14T13:10:47.884Z,32.63
2022-08-14T13:13:18.112Z,32.80
2022-08-14T13:15:48.346Z,32.43
2022-08-14T13:18:27.777Z,32.28
2022-08-14T13:20:59.730Z,31.87
2022-08-14T13:23:36.485Z,32.36
2022-08-14T13:26:05.812Z,32.92
2022-08-14T13:28:41.202Z,33.44
2022-08-14T13:31:30.075Z,33.27
2022-08-14T13:34:00.189Z,33.36
2022-08-14T13:36:51.833Z,32.81
2022-08-14T13:39:17.437Z,32.56
2022-08-14T13:41:46.950Z,33.07
2022-08-14T13:44:15.317Z,32.70
2022-08-14T13:46:50.268Z,32.40
2022-08-14T13:49:20.868Z,32.57
2022-08-14T13:51:54.136Z,32.69
2022-08-14T13:54:23.064Z,32.56
2022-08-14T13:56:50.873Z,32.50
2022-08-14T13:59:20.249Z,32.24
2022-08-14T14:01:51.775Z,32.31
2022-08-14T14:04:24.420Z,31.85
2022-08-14T14:06:52.800Z,31.18
2022-08-14T14:09:32.646Z,31.75
2022-08-14T14:12:37.721Z,31.60
2022-08-14T14:15:04.776Z,32.04
2022-08-14T14:17:33.500Z,32.21
2022-08-14T14:20:04.777Z,32.16
2022-08-14T14:22:34.320Z,31.91
2022-08-14T14:25:04.072Z,32.20
2022-08-14T14:27:41.704Z,31.40
2022-08-14T14:30:24.486Z,31.62
2022-08-14T14:33:04.404Z,31.66
2022-08-14T14:35:39.755Z,31.61
2022-08-14T14:38:08.634Z,31.83
2022-08-14T14:40:54.068Z,30.96
2022-08-14T14:43:28.733Z,30.62
2022-08-14T14:45:59.998Z,31.28
2022-08-14T14:48:31.397Z,31.29
2022-08-14T14:51:02.162Z,31.10
2022-08-14T14:53:38.601Z,31.14
2022-08-14T14:56:47.200Z,31.56
2022-08-14T14:58:57.403Z,32.13
2022-08-14T15:01:26.269Z,32.09
2022-08-14T15:03:56.439Z,32.22
2022-08-14T15:06:30.547Z,32.58
2022-08-14T15:09:02.051Z,32.97
2022-08-14T15:11:33.327Z,32.98
2022-08-14T15:14:01.581Z,32.79
2022-08-14T15:16:49.969Z,32.72
2022-08-14T15:19:18.378Z,32.43
2022-08-14T15:21:47.553Z,32.50
2022-08-14T15:24:20.755Z,32.42
2022-08-14T15:26:52.319Z,32.26
2022-08-14T15:29:20.058Z,31.90
2022-08-14T15:31:48.001Z,32.56
2022-08-14T15:34:43.038Z,32.02
2022-08-14T15:37:10.869Z,31.83
2022-08-14T15:39:41.883Z,32.40
2022-08-14T15:42:16.183Z,32.24
2022-08-14T15:44:57.419Z,32.24
2022-08-14T15:47:29.281Z,32.38
2022-08-14T15:49:59.029Z,31.98
2022-08-14T15:52:34.349Z,32.21
2022-08-14T15:55:05.965Z,31.94
2022-08-14T15:57:34.497Z,32.44
2022-08-14T16:00:21.537Z,32.32
2022-08-14T16:03:15.634Z,32.95
2022-08-14T16:05:45.747Z,32.39
2022-08-14T16:08:29.376Z,32.69
2022-08-14T16:11:00.647Z,32.63
2022-08-14T16:13:41.522Z,32.66
2022-08-14T16:16:35.037Z,32.65
2022-08-14T16:19:10.219Z,32.75
2022-08-14T16:22:01.324Z,32.17
2022-08-14T16:27:33.770Z,31.72
2022-08-14T16:30:12.218Z,31.96
2022-08-14T16:32:54.607Z,32.43
2022-08-14T16:35:25.099Z,32.29
2022-08-14T16:37:55.733Z,32.65
2022-08-14T16:40:24.219Z,32.39
2022-08-14T16:43:04.323Z,33.13
2022-08-14T16:45:43.690Z,33.22
2022-08-14T16:48:57.577Z,32.72
2022-08-14T16:51:01.656Z,32.99
2022-08-14T16:53:36.827Z,33.49
2022-08-14T16:56:23.796Z,33.21
2022-08-14T16:59:06.559Z,32.70
2022-08-14T17:01:36.911Z,33.04
2022-08-14T17:04:14.817Z,33.21
2022-08-14T17:06:54.975Z,33.07
2022-08-14T17:09:35.429Z,33.64
2022-08-14T17:12:08.488Z,33.71
2022-08-14T17:14:56.207Z,33.99
2022-08-14T17:17:27.739Z,33.89
2022-08-14T17:20:02.054Z,33.94
2022-08-14T17:22:48.453Z,33.77
2022-08-14T17:25:17.979Z,33.99
2022-08-14T17:28:51.569Z,34.04
2022-08-14T17:31:02.554Z,34.37
2022-08-14T17:33:33.785Z,34.41
2022-08-14T17:36:21.393Z,34.28
2022-08-14T17:39:02.728Z,34.44
2022-08-14T17:41:37.512Z,34.70
2022-08-14T17:44:33.716Z,34.83
2022-08-14T17:47:10.090Z,34.66
2022-08-14T17:49:46.229Z,34.79
2022-08-14T17:52:16.793Z,35.06
2022-08-14T17:54:52.900Z,34.64
2022-08-14T17:57:28.587Z,35.01
2022-08-14T17:59:59.013Z,35.04
2022-08-14T18:02:31.478Z,34.99
2022-08-14T18:05:03.162Z,35.16
2022-08-14T18:08:00.218Z,35.37
2022-08-14T18:10:55.398Z,35.56
2022-08-14T18:13:11.111Z,35.76
2022-08-14T18:15:43.186Z,36.14
2022-08-14T18:18:19.408Z,36.47
2022-08-14T18:21:41.814Z,36.54
2022-08-14T18:23:41.856Z,36.65
2022-08-14T18:26:37.141Z,36.83
2022-08-14T18:29:00.750Z,36.46
2022-08-14T18:31:43.510Z,36.53
2022-08-14T18:34:32.283Z,36.21
2022-08-14T18:37:14.287Z,35.93
2022-08-14T18:40:02.843Z,35.21
2022-08-14T18:42:44.299Z,35.39
2022-08-14T18:45:15.526Z,35.89
2022-08-14T18:48:14.689Z,36.22
2022-08-14T18:50:52.499Z,36.47
2022-08-14T18:53:25.178Z,36.42
2022-08-14T18:56:00.001Z,36.65
2022-08-14T18:58:49.078Z,37.02
2022-08-14T19:01:26.962Z,36.95
2022-08-14T19:04:02.194Z,36.89
2022-08-14T19:06:41.520Z,36.76
2022-08-14T19:09:44.056Z,37.05
2022-08-14T19:12:56.500Z,37.27
2022-08-14T19:15:27.242Z,37.26
2022-08-14T19:18:13.931Z,37.47
2022-08-14T19:20:52.856Z,37.62
2022-08-14T19:23:40.606Z,37.60
2022-08-14T19:26:37.047Z,38.01
2022-08-14T19:29:37.724Z,38.08
2022-08-14T19:32:39.760Z,38.71
2022-08-14T19:35:55.898Z,38.36
2022-08-14T19:38:48.023Z,38.45
2022-08-14T19:41:17.818Z,38.44
2022-08-14T19:43:55.523Z,38.96
2022-08-14T19:46:38.805Z,38.55
2022-08-14T19:49:23.234Z,38.75
2022-08-14T19:52:17.489Z,39.17
2022-08-14T19:54:50.480Z,39.21
2022-08-14T19:57:21.381Z,39.00
2022-08-14T20:00:00.512Z,39.11
2022-08-14T20:02:30.348Z,39.25
2022-08-14T20:05:00.467Z,39.47
2022-08-14T20:08:00.122Z,39.18
2022-08-14T20:11:03.251Z,39.43
2022-08-14T20:13:23.633Z,39.58
2022-08-14T20:15:52.116Z,39.34
2022-08-14T20:18:49.866Z,39.66
2022-08-14T20:21:14.908Z,39.96
2022-08-14T20:23:44.083Z,39.93
2022-08-14T20:26:31.943Z,40.47
2022-08-14T20:29:05.376Z,40.40
2022-08-14T20:31:38.553Z,40.61
2022-08-14T20:34:18.811Z,41.33
2022-08-14T20:37:04.470Z,41.59
2022-08-14T20:39:38.237Z,41.27
2022-08-14T20:42:31.958Z,41.32
2022-08-14T20:45:23.696Z,41.42
2022-08-14T20:48:00.767Z,41.89
2022-08-14T20:50:31.991Z,42.50
2022-08-14T20:53:00.822Z,42.65
2022-08-14T20:55:41.547Z,42.53
2022-08-14T20:58:43.237Z,42.84
2022-08-14T21:01:33.641Z,43.34
2022-08-14T21:04:05.099Z,43.27
2022-08-14T21:07:22.841Z,43.50
2022-08-14T21:10:05.158Z,43.62
2022-08-14T21:12:34.208Z,43.81
2022-08-14T21:15:11.151Z,44.05
2022-08-14T21:17:43.153Z,44.33
2022-08-14T21:20:25.392Z,44.50
2022-08-14T21:22:56.823Z,45.11
2022-08-14T21:25:31.927Z,45.10
2022-08-14T21:28:04.198Z,45.34
2022-08-14T21:30:46.948Z,45.61
2022-08-14T21:33:21.678Z,45.78
2022-08-14T21:35:50.056Z,46.10
2022-08-14T21:38:31.260Z,46.69
2022-08-14T21:41:41.607Z,46.46
2022-08-14T21:43:57.065Z,46.68
2022-08-14T21:46:25.446Z,46.84
2022-08-14T21:48:55.350Z,46.98
2022-08-14T21:51:53.418Z,47.09
2022-08-14T21:54:32.363Z,47.03
2022-08-14T21:57:02.235Z,47.21
2022-08-14T21:59:34.153Z,47.47
2022-08-14T22:02:05.720Z,47.60
2022-08-14T22:04:40.149Z,47.90
2022-08-14T22:07:12.129Z,47.69
2022-08-14T22:09:42.950Z,47.88
2022-08-14T22:12:58.687Z,47.93
2022-08-14T22:15:02.871Z,48.09
2022-08-14T22:28:32.851Z,49.22
2022-08-14T22:31:02.299Z,49.04
2022-08-14T22:33:30.810Z,49.38
2022-08-14T22:36:00.369Z,49.23
2022-08-14T22:38:35.536Z,49.30
2022-08-14T22:41:27.803Z,49.38
2022-08-14T22:43:59.467Z,49.46
2022-08-14T22:46:27.555Z,49.47
2022-08-14T22:48:57.573Z,49.36
2022-08-14T22:51:27.544Z,49.98
2022-08-14T22:53:56.902Z,49.95
2022-08-14T22:56:30.131Z,50.12
2022-08-14T22:59:00.115Z,50.28
2022-08-14T23:01:56.157Z,50.35
2022-08-14T23:04:34.848Z,50.29
2022-08-14T23:07:22.036Z,50.51
2022-08-14T23:09:56.914Z,50.64
2022-08-14T23:12:29.412Z,50.54
2022-08-14T23:14:59.556Z,50.45
2022-08-14T23:17:39.233Z,50.45
2022-08-14T23:20:18.855Z,50.69
2022-08-14T23:22:51.398Z,50.62
2022-08-14T23:25:57.291Z,51.03
2022-08-14T23:28:33.751Z,50.92
2022-08-14T23:30:57.458Z,50.98
2022-08-14T23:33:28.726Z,51.17
2022-08-14T23:35:58.874Z,51.21
2022-08-14T23:38:30.282Z,51.69
2022-08-14T23:41:00.851Z,51.82
2022-08-14T23:43:31.771Z,51.95
2022-08-14T23:46:00.639Z,51.94
2022-08-14T23:48:29.349Z,52.14
2022-08-14T23:51:00.175Z,52.13
2022-08-14T23:53:48.791Z,52.35
2022-08-14T23:56:32.298Z,52.23
2022-08-14T23:59:02.654Z,52.63
